Turkey Creek, Kentucky
Current Conditions -  °F | °C
As of 7:15 AM on Friday 28 Nov 2014 (Local Time) from KPBX Reporting Station
Overcast Overcast  
Wind Chill: 20°   Ceiling: 3100
Heat Index: 26°   Visibility: 10mi
Dew Point: 18°   Wind: 6mph
Humidity: 70%   Direction: 280°W
Pressure: 30.36"   Gusts: NA
Location:  37.632°N, 82.2603°W
Report Text: KPBX 281215Z AUTO 28005KT 10SM OVC031 M03/M08 A3036 RMK AO2 T10321080
Loading
Personal Weather Stations






























Interactive Weather Map New forecast layout! Learn more

10-Day Weather Forecast

Advertisements
Track Severe Weather on mobile